sensor_id;sensor_type;location;lat;lon;timestamp;temperature;humidity
10662;DHT22;5379;51.034;7.006;2023-02-01T00:01:05;10.70;99.90
10662;DHT22;5379;51.034;7.006;2023-02-01T00:03:32;10.60;99.90
10662;DHT22;5379;51.034;7.006;2023-02-01T00:06:00;10.70;99.90
10662;DHT22;5379;51.034;7.006;2023-02-01T00:08:27;10.00;99.90
10662;DHT22;5379;51.034;7.006;2023-02-01T00:11:01;10.60;99.90
10662;DHT22;5379;51.034;7.006;2023-02-01T00:13:29;10.60;99.90
10662;DHT22;5379;51.034;7.006;2023-02-01T00:16:04;10.60;99.90
10662;DHT22;5379;51.034;7.006;2023-02-01T00:18:31;10.60;99.90
10662;DHT22;5379;51.034;7.006;2023-02-01T00:20:59;10.50;99.90
10662;DHT22;5379;51.034;7.006;2023-02-01T00:23:26;10.50;99.90
10662;DHT22;5379;51.034;7.006;2023-02-01T00:25:53;10.60;99.90
10662;DHT22;5379;51.034;7.006;2023-02-01T00:28:20;10.80;99.90
10662;DHT22;5379;51.034;7.006;2023-02-01T00:30:56;10.90;99.90
10662;DHT22;5379;51.034;7.006;2023-02-01T00:33:24;10.80;99.90
10662;DHT22;5379;51.034;7.006;2023-02-01T00:35:51;10.80;99.90
10662;DHT22;5379;51.034;7.006;2023-02-01T00:38:22;10.80;99.90
10662;DHT22;5379;51.034;7.006;2023-02-01T00:40:49;10.70;99.90
10662;DHT22;5379;51.034;7.006;2023-02-01T00:43:16;10.70;99.90
10662;DHT22;5379;51.034;7.006;2023-02-01T00:45:44;10.80;99.90
10662;DHT22;5379;51.034;7.006;2023-02-01T00:48:11;10.80;99.90
10662;DHT22;5379;51.034;7.006;2023-02-01T00:50:42;10.80;99.90
10662;DHT22;5379;51.034;7.006;2023-02-01T00:53:10;10.70;99.90
10662;DHT22;5379;51.034;7.006;2023-02-01T00:55:37;10.80;99.90
10662;DHT22;5379;51.034;7.006;2023-02-01T00:58:04;10.80;99.90
10662;DHT22;5379;51.034;7.006;2023-02-01T05:30:34;9.60;99.90
10662;DHT22;5379;51.034;7.006;2023-02-01T05:33:01;9.70;99.90
10662;DHT22;5379;51.034;7.006;2023-02-01T05:35:28;9.50;99.90
10662;DHT22;5379;51.034;7.006;2023-02-01T05:37:56;9.40;99.90
10662;DHT22;5379;51.034;7.006;2023-02-01T05:40:23;9.70;99.90
10662;DHT22;5379;51.034;7.006;2023-02-01T05:42:50;9.70;99.90
10662;DHT22;5379;51.034;7.006;2023-02-01T05:45:17;9.70;99.90
10662;DHT22;5379;51.034;7.006;2023-02-01T05:47:45;9.60;99.90
10662;DHT22;5379;51.034;7.006;2023-02-01T05:50:12;9.60;99.90
10662;DHT22;5379;51.034;7.006;2023-02-01T05:52:39;9.60;99.90
10662;DHT22;5379;51.034;7.006;2023-02-01T05:55:06;9.40;99.90
10662;DHT22;5379;51.034;7.006;2023-02-01T05:57:34;9.40;99.90
10662;DHT22;5379;51.034;7.006;2023-02-01T06:00:01;9.20;99.90
10662;DHT22;5379;51.034;7.006;2023-02-01T06:02:28;9.30;99.90
10662;DHT22;5379;51.034;7.006;2023-02-01T06:04:56;9.50;99.90
10662;DHT22;5379;51.034;7.006;2023-02-01T06:07:23;9.40;99.90
10662;DHT22;5379;51.034;7.006;2023-02-01T06:09:50;9.50;99.90
10662;DHT22;5379;51.034;7.006;2023-02-01T06:12:17;9.50;99.90
10662;DHT22;5379;51.034;7.006;2023-02-01T06:14:44;9.30;99.90
10662;DHT22;5379;51.034;7.006;2023-02-01T06:17:11;9.20;99.90
10662;DHT22;5379;51.034;7.006;2023-02-01T06:19:38;9.20;99.90
10662;DHT22;5379;51.034;7.006;2023-02-01T06:22:07;9.20;99.90
10662;DHT22;5379;51.034;7.006;2023-02-01T06:24:34;9.50;99.90
10662;DHT22;5379;51.034;7.006;2023-02-01T06:27:01;9.70;99.90
10662;DHT22;5379;51.034;7.006;2023-02-01T06:29:28;9.80;99.90
10662;DHT22;5379;51.034;7.006;2023-02-01T06:31:55;9.80;99.90
10662;DHT22;5379;51.034;7.006;2023-02-01T06:34:22;9.70;99.90
10662;DHT22;5379;51.034;7.006;2023-02-01T06:36:50;9.50;99.90
10662;DHT22;5379;51.034;7.006;2023-02-01T06:39:18;9.40;99.90
10662;DHT22;5379;51.034;7.006;2023-02-01T06:41:46;9.60;99.90
10662;DHT22;5379;51.034;7.006;2023-02-01T06:44:13;9.60;99.90
10662;DHT22;5379;51.034;7.006;2023-02-01T06:46:41;9.70;99.90
10662;DHT22;5379;51.034;7.006;2023-02-01T06:49:08;9.80;99.90
10662;DHT22;5379;51.034;7.006;2023-02-01T06:51:35;9.80;99.90
10662;DHT22;5379;51.034;7.006;2023-02-01T06:54:02;9.60;99.90
10662;DHT22;5379;51.034;7.006;2023-02-01T06:56:30;9.90;99.90
10662;DHT22;5379;51.034;7.006;2023-02-01T06:58:57;10.00;99.90
10662;DHT22;5379;51.034;7.006;2023-02-01T07:01:26;10.10;99.90
10662;DHT22;5379;51.034;7.006;2023-02-01T07:03:53;10.10;99.90
10662;DHT22;5379;51.034;7.006;2023-02-01T07:06:20;10.00;99.90
10662;DHT22;5379;51.034;7.006;2023-02-01T07:08:47;10.00;99.90
10662;DHT22;5379;51.034;7.006;2023-02-01T07:11:16;9.90;99.90
10662;DHT22;5379;51.034;7.006;2023-02-01T07:13:45;9.90;99.90
10662;DHT22;5379;51.034;7.006;2023-02-01T07:16:14;9.60;99.90
10662;DHT22;5379;51.034;7.006;2023-02-01T07:18:41;9.80;99.90
10662;DHT22;5379;51.034;7.006;2023-02-01T07:21:08;9.70;99.90
10662;DHT22;5379;51.034;7.006;2023-02-01T07:23:36;9.80;99.90
10662;DHT22;5379;51.034;7.006;2023-02-01T07:26:06;9.80;99.90
10662;DHT22;5379;51.034;7.006;2023-02-01T07:28:34;10.10;99.90
10662;DHT22;5379;51.034;7.006;2023-02-01T07:31:05;10.00;99.90
10662;DHT22;5379;51.034;7.006;2023-02-01T07:33:32;10.20;99.90
10662;DHT22;5379;51.034;7.006;2023-02-01T07:36:01;10.10;99.90
10662;DHT22;5379;51.034;7.006;2023-02-01T07:38:29;10.20;99.90
10662;DHT22;5379;51.034;7.006;2023-02-01T07:40:57;9.90;99.90
10662;DHT22;5379;51.034;7.006;2023-02-01T07:43:25;9.90;99.90
10662;DHT22;5379;51.034;7.006;2023-02-01T07:45:53;10.00;99.90
10662;DHT22;5379;51.034;7.006;2023-02-01T07:48:22;9.90;99.90
10662;DHT22;5379;51.034;7.006;2023-02-01T07:50:57;10.00;99.90
10662;DHT22;5379;51.034;7.006;2023-02-01T07:53:24;10.10;99.90
10662;DHT22;5379;51.034;7.006;2023-02-01T07:55:51;10.20;99.90
10662;DHT22;5379;51.034;7.006;2023-02-01T07:58:18;10.30;99.90
10662;DHT22;5379;51.034;7.006;2023-02-01T08:00:45;10.20;99.90
10662;DHT22;5379;51.034;7.006;2023-02-01T08:03:31;10.20;99.90
10662;DHT22;5379;51.034;7.006;2023-02-01T08:05:58;10.30;99.90
10662;DHT22;5379;51.034;7.006;2023-02-01T08:08:25;10.40;99.90
10662;DHT22;5379;51.034;7.006;2023-02-01T08:10:57;10.30;99.90
10662;DHT22;5379;51.034;7.006;2023-02-01T08:13:24;10.20;99.90
10662;DHT22;5379;51.034;7.006;2023-02-01T08:15:51;10.40;99.90
10662;DHT22;5379;51.034;7.006;2023-02-01T08:18:18;10.60;99.90
10662;DHT22;5379;51.034;7.006;2023-02-01T08:20:47;10.40;99.90
10662;DHT22;5379;51.034;7.006;2023-02-01T08:23:14;10.40;99.90
10662;DHT22;5379;51.034;7.006;2023-02-01T08:25:43;10.20;99.90
10662;DHT22;5379;51.034;7.006;2023-02-01T08:28:10;10.10;99.90
10662;DHT22;5379;51.034;7.006;2023-02-01T08:30:38;10.40;99.90
10662;DHT22;5379;51.034;7.006;2023-02-01T08:33:05;10.40;99.90
10662;DHT22;5379;51.034;7.006;2023-02-01T08:35:34;10.20;99.90
10662;DHT22;5379;51.034;7.006;2023-02-01T08:38:03;10.30;99.90
10662;DHT22;5379;51.034;7.006;2023-02-01T08:40:30;10.70;99.90
10662;DHT22;5379;51.034;7.006;2023-02-01T08:42:57;10.60;99.90
10662;DHT22;5379;51.034;7.006;2023-02-01T08:45:28;10.50;99.90
10662;DHT22;5379;51.034;7.006;2023-02-01T08:47:55;11.20;99.90
10662;DHT22;5379;51.034;7.006;2023-02-01T08:50:23;10.80;99.90
10662;DHT22;5379;51.034;7.006;2023-02-01T08:52:50;11.90;99.90
10662;DHT22;5379;51.034;7.006;2023-02-01T08:55:19;14.10;99.90
10662;DHT22;5379;51.034;7.006;2023-02-01T08:57:46;13.10;97.90
10662;DHT22;5379;51.034;7.006;2023-02-01T09:00:18;12.10;99.20
10662;DHT22;5379;51.034;7.006;2023-02-01T09:02:45;12.20;99.90
10662;DHT22;5379;51.034;7.006;2023-02-01T09:05:12;12.10;98.90
10662;DHT22;5379;51.034;7.006;2023-02-01T09:07:42;11.10;99.90
10662;DHT22;5379;51.034;7.006;2023-02-01T09:10:10;10.90;99.90
10662;DHT22;5379;51.034;7.006;2023-02-01T09:12:38;10.50;99.90
10662;DHT22;5379;51.034;7.006;2023-02-01T09:15:06;10.80;99.90
10662;DHT22;5379;51.034;7.006;2023-02-01T09:17:34;10.80;99.90
10662;DHT22;5379;51.034;7.006;2023-02-01T09:20:02;10.90;99.90
10662;DHT22;5379;51.034;7.006;2023-02-01T09:22:29;10.80;99.90
10662;DHT22;5379;51.034;7.006;2023-02-01T09:24:56;10.70;99.90
10662;DHT22;5379;51.034;7.006;2023-02-01T09:27:23;10.60;99.90
10662;DHT22;5379;51.034;7.006;2023-02-01T09:29:52;10.50;99.90
10662;DHT22;5379;51.034;7.006;2023-02-01T09:32:19;10.40;99.90
10662;DHT22;5379;51.034;7.006;2023-02-01T09:34:47;10.20;99.90
10662;DHT22;5379;51.034;7.006;2023-02-01T09:37:14;10.20;99.90
10662;DHT22;5379;51.034;7.006;2023-02-01T09:39:41;10.30;99.90
10662;DHT22;5379;51.034;7.006;2023-02-01T09:42:19;10.40;99.90
10662;DHT22;5379;51.034;7.006;2023-02-01T09:45:06;11.10;99.90
10662;DHT22;5379;51.034;7.006;2023-02-01T09:47:45;11.20;99.90
10662;DHT22;5379;51.034;7.006;2023-02-01T09:50:16;11.00;99.90
10662;DHT22;5379;51.034;7.006;2023-02-01T09:52:51;9.10;99.90
10662;DHT22;5379;51.034;7.006;2023-02-01T09:55:25;11.00;99.90
10662;DHT22;5379;51.034;7.006;2023-02-01T09:57:57;10.90;99.90
10662;DHT22;5379;51.034;7.006;2023-02-01T10:00:29;11.30;99.90
10662;DHT22;5379;51.034;7.006;2023-02-01T10:02:57;11.10;99.90
10662;DHT22;5379;51.034;7.006;2023-02-01T10:05:39;11.10;99.90
10662;DHT22;5379;51.034;7.006;2023-02-01T10:08:12;11.00;99.90
10662;DHT22;5379;51.034;7.006;2023-02-01T10:10:47;12.40;99.90
10662;DHT22;5379;51.034;7.006;2023-02-01T10:13:39;10.50;99.90
10662;DHT22;5379;51.034;7.006;2023-02-01T10:16:22;10.90;99.90
10662;DHT22;5379;51.034;7.006;2023-02-01T10:19:10;11.20;99.90
10662;DHT22;5379;51.034;7.006;2023-02-01T10:21:50;11.90;99.90
10662;DHT22;5379;51.034;7.006;2023-02-01T10:24:37;11.70;99.80
10662;DHT22;5379;51.034;7.006;2023-02-01T10:27:13;11.50;99.80
10662;DHT22;5379;51.034;7.006;2023-02-01T10:29:42;11.00;99.90
10662;DHT22;5379;51.034;7.006;2023-02-01T10:32:21;11.00;99.90
10662;DHT22;5379;51.034;7.006;2023-02-01T10:34:53;10.90;99.90
10662;DHT22;5379;51.034;7.006;2023-02-01T10:37:26;11.50;99.90
10662;DHT22;5379;51.034;7.006;2023-02-01T10:39:55;11.40;99.90
10662;DHT22;5379;51.034;7.006;2023-02-01T10:42:26;11.60;99.90
10662;DHT22;5379;51.034;7.006;2023-02-01T10:44:55;12.70;99.90
10662;DHT22;5379;51.034;7.006;2023-02-01T10:47:24;12.80;98.60
10662;DHT22;5379;51.034;7.006;2023-02-01T10:49:58;12.60;99.70
10662;DHT22;5379;51.034;7.006;2023-02-01T10:52:36;12.50;99.90
10662;DHT22;5379;51.034;7.006;2023-02-01T10:55:26;12.50;99.00
10662;DHT22;5379;51.034;7.006;2023-02-01T10:57:56;12.70;99.90
10662;DHT22;5379;51.034;7.006;2023-02-01T11:00:24;12.80;98.60
10662;DHT22;5379;51.034;7.006;2023-02-01T11:02:53;12.40;99.90
10662;DHT22;5379;51.034;7.006;2023-02-01T11:05:22;12.90;99.90
10662;DHT22;5379;51.034;7.006;2023-02-01T11:07:51;13.50;98.10
10662;DHT22;5379;51.034;7.006;2023-02-01T11:10:37;14.10;99.90
10662;DHT22;5379;51.034;7.006;2023-02-01T11:13:04;13.70;98.00
10662;DHT22;5379;51.034;7.006;2023-02-01T11:15:31;13.20;98.50
10662;DHT22;5379;51.034;7.006;2023-02-01T11:18:15;12.90;98.60
10662;DHT22;5379;51.034;7.006;2023-02-01T11:20:42;12.80;98.10
10662;DHT22;5379;51.034;7.006;2023-02-01T11:23:15;12.10;99.10
10662;DHT22;5379;51.034;7.006;2023-02-01T11:25:49;12.20;99.90
10662;DHT22;5379;51.034;7.006;2023-02-01T11:28:18;12.70;99.90
10662;DHT22;5379;51.034;7.006;2023-02-01T11:30:48;13.60;98.80
10662;DHT22;5379;51.034;7.006;2023-02-01T11:33:18;13.80;98.30
10662;DHT22;5379;51.034;7.006;2023-02-01T11:35:47;14.60;99.90
10662;DHT22;5379;51.034;7.006;2023-02-01T11:38:21;15.00;97.50
10662;DHT22;5379;51.034;7.006;2023-02-01T11:40:48;14.80;97.10
10662;DHT22;5379;51.034;7.006;2023-02-01T11:43:23;14.40;98.60
10662;DHT22;5379;51.034;7.006;2023-02-01T11:45:55;15.40;97.30
10662;DHT22;5379;51.034;7.006;2023-02-01T11:48:26;15.70;96.00
10662;DHT22;5379;51.034;7.006;2023-02-01T11:53:55;14.60;95.50
10662;DHT22;5379;51.034;7.006;2023-02-01T11:56:32;13.70;97.40
10662;DHT22;5379;51.034;7.006;2023-02-01T11:59:11;14.70;98.70
10662;DHT22;5379;51.034;7.006;2023-02-01T12:02:01;15.60;96.60
10662;DHT22;5379;51.034;7.006;2023-02-01T12:05:02;15.70;94.60
10662;DHT22;5379;51.034;7.006;2023-02-01T12:07:47;15.30;98.30
10662;DHT22;5379;51.034;7.006;2023-02-01T12:10:28;15.20;96.40
10662;DHT22;5379;51.034;7.006;2023-02-01T12:13:06;15.30;97.60
10662;DHT22;5379;51.034;7.006;2023-02-01T12:15:42;15.60;99.60
10662;DHT22;5379;51.034;7.006;2023-02-01T12:18:43;16.50;95.00
10662;DHT22;5379;51.034;7.006;2023-02-01T12:21:26;16.90;98.20
10662;DHT22;5379;51.034;7.006;2023-02-01T12:24:17;15.60;94.20
10662;DHT22;5379;51.034;7.006;2023-02-01T12:26:57;15.20;98.70
10662;DHT22;5379;51.034;7.006;2023-02-01T12:32:37;14.90;97.50
10662;DHT22;5379;51.034;7.006;2023-02-01T12:38:22;15.70;96.70
10662;DHT22;5379;51.034;7.006;2023-02-01T12:41:03;15.50;94.60
10662;DHT22;5379;51.034;7.006;2023-02-01T12:43:38;15.30;97.10
10662;DHT22;5379;51.034;7.006;2023-02-01T12:46:10;15.30;98.90
10662;DHT22;5379;51.034;7.006;2023-02-01T12:48:41;14.60;95.50
10662;DHT22;5379;51.034;7.006;2023-02-01T12:51:13;15.00;96.50
10662;DHT22;5379;51.034;7.006;2023-02-01T12:53:50;14.80;95.30
10662;DHT22;5379;51.034;7.006;2023-02-01T12:56:22;14.10;97.70
10662;DHT22;5379;51.034;7.006;2023-02-01T12:58:52;14.10;99.90
10662;DHT22;5379;51.034;7.006;2023-02-01T13:01:22;13.80;96.80
10662;DHT22;5379;51.034;7.006;2023-02-01T13:03:56;13.50;99.90
10662;DHT22;5379;51.034;7.006;2023-02-01T13:06:28;14.20;97.50
10662;DHT22;5379;51.034;7.006;2023-02-01T13:09:02;13.50;97.10
10662;DHT22;5379;51.034;7.006;2023-02-01T13:11:34;13.40;99.60
10662;DHT22;5379;51.034;7.006;2023-02-01T13:14:05;12.90;98.20
10662;DHT22;5379;51.034;7.006;2023-02-01T13:16:37;12.60;98.50
10662;DHT22;5379;51.034;7.006;2023-02-01T13:19:10;12.60;99.80
10662;DHT22;5379;51.034;7.006;2023-02-01T13:21:43;13.20;98.50
10662;DHT22;5379;51.034;7.006;2023-02-01T13:24:24;13.80;98.10
10662;DHT22;5379;51.034;7.006;2023-02-01T13:26:54;14.60;96.90
10662;DHT22;5379;51.034;7.006;2023-02-01T13:29:22;14.70;95.80
10662;DHT22;5379;51.034;7.006;2023-02-01T13:32:02;14.20;96.80
10662;DHT22;5379;51.034;7.006;2023-02-01T13:38:14;14.20;96.10
10662;DHT22;5379;51.034;7.006;2023-02-01T13:40:51;14.50;99.90
10662;DHT22;5379;51.034;7.006;2023-02-01T13:43:24;14.30;97.50
10662;DHT22;5379;51.034;7.006;2023-02-01T13:45:55;14.60;98.50
10662;DHT22;5379;51.034;7.006;2023-02-01T13:48:28;14.80;96.40
10662;DHT22;5379;51.034;7.006;2023-02-01T13:50:57;14.50;96.70
10662;DHT22;5379;51.034;7.006;2023-02-01T13:53:29;14.70;98.70
10662;DHT22;5379;51.034;7.006;2023-02-01T13:55:59;14.80;96.10
10662;DHT22;5379;51.034;7.006;2023-02-01T13:58:33;14.30;96.20
10662;DHT22;5379;51.034;7.006;2023-02-01T14:07:18;13.80;97.10
10662;DHT22;5379;51.034;7.006;2023-02-01T14:09:45;13.50;97.50
10662;DHT22;5379;51.034;7.006;2023-02-01T14:12:43;13.90;98.20
10662;DHT22;5379;51.034;7.006;2023-02-01T14:15:20;13.60;97.80
10662;DHT22;5379;51.034;7.006;2023-02-01T14:17:48;14.20;96.50
10662;DHT22;5379;51.034;7.006;2023-02-01T14:20:48;13.50;97.70
10662;DHT22;5379;51.034;7.006;2023-02-01T14:26:18;13.30;96.70
10662;DHT22;5379;51.034;7.006;2023-02-01T14:29:02;13.30;98.70
10662;DHT22;5379;51.034;7.006;2023-02-01T14:31:47;13.70;98.90
10662;DHT22;5379;51.034;7.006;2023-02-01T14:34:34;14.20;97.10
10662;DHT22;5379;51.034;7.006;2023-02-01T14:37:07;14.40;97.80
10662;DHT22;5379;51.034;7.006;2023-02-01T14:39:50;14.40;99.40
10662;DHT22;5379;51.034;7.006;2023-02-01T14:42:24;14.40;96.40
10662;DHT22;5379;51.034;7.006;2023-02-01T14:44:54;14.40;96.30
10662;DHT22;5379;51.034;7.006;2023-02-01T14:47:33;14.30;96.80
10662;DHT22;5379;51.034;7.006;2023-02-01T14:50:09;14.50;95.90
10662;DHT22;5379;51.034;7.006;2023-02-01T14:52:39;14.60;95.70
10662;DHT22;5379;51.034;7.006;2023-02-01T14:55:12;14.10;96.80
10662;DHT22;5379;51.034;7.006;2023-02-01T14:57:43;14.50;96.00
10662;DHT22;5379;51.034;7.006;2023-02-01T15:00:19;14.40;96.00
10662;DHT22;5379;51.034;7.006;2023-02-01T15:02:48;14.00;97.00
10662;DHT22;5379;51.034;7.006;2023-02-01T15:05:28;14.10;95.90
10662;DHT22;5379;51.034;7.006;2023-02-01T15:08:15;14.30;97.80
10662;DHT22;5379;51.034;7.006;2023-02-01T15:10:45;13.90;97.60
10662;DHT22;5379;51.034;7.006;2023-02-01T15:13:19;14.70;98.10
10662;DHT22;5379;51.034;7.006;2023-02-01T15:16:05;14.60;99.40
10662;DHT22;5379;51.034;7.006;2023-02-01T15:18:32;15.00;97.70
10662;DHT22;5379;51.034;7.006;2023-02-01T15:21:01;14.30;95.60
10662;DHT22;5379;51.034;7.006;2023-02-01T15:23:29;13.80;97.40
10662;DHT22;5379;51.034;7.006;2023-02-01T15:25:55;14.10;99.90
10662;DHT22;5379;51.034;7.006;2023-02-01T15:28:23;14.70;97.30
10662;DHT22;5379;51.034;7.006;2023-02-01T15:31:15;13.70;97.00
10662;DHT22;5379;51.034;7.006;2023-02-01T15:33:57;13.50;99.70
10662;DHT22;5379;51.034;7.006;2023-02-01T15:36:24;14.50;99.90
10662;DHT22;5379;51.034;7.006;2023-02-01T15:41:56;14.60;96.20
10662;DHT22;5379;51.034;7.006;2023-02-01T15:44:37;15.20;99.90
10662;DHT22;5379;51.034;7.006;2023-02-01T15:47:12;15.50;97.60
10662;DHT22;5379;51.034;7.006;2023-02-01T15:49:41;14.90;96.70
10662;DHT22;5379;51.034;7.006;2023-02-01T15:52:29;15.00;99.90
10662;DHT22;5379;51.034;7.006;2023-02-01T15:55:07;14.70;95.50
10662;DHT22;5379;51.034;7.006;2023-02-01T15:57:38;14.90;96.40
10662;DHT22;5379;51.034;7.006;2023-02-01T16:00:07;14.80;96.40
10662;DHT22;5379;51.034;7.006;2023-02-01T16:02:53;14.40;99.00
10662;DHT22;5379;51.034;7.006;2023-02-01T16:05:39;14.10;96.70
10662;DHT22;5379;51.034;7.006;2023-02-01T16:08:11;13.60;97.90
10662;DHT22;5379;51.034;7.006;2023-02-01T16:13:50;14.40;96.70
10662;DHT22;5379;51.034;7.006;2023-02-01T16:16:18;14.70;95.90
10662;DHT22;5379;51.034;7.006;2023-02-01T16:18:46;14.90;99.90
10662;DHT22;5379;51.034;7.006;2023-02-01T16:21:13;15.70;95.20
10662;DHT22;5379;51.034;7.006;2023-02-01T16:23:40;15.20;97.90
10662;DHT22;5379;51.034;7.006;2023-02-01T16:26:07;15.70;98.40
10662;DHT22;5379;51.034;7.006;2023-02-01T16:28:34;16.00;96.20
10662;DHT22;5379;51.034;7.006;2023-02-01T16:31:02;15.60;97.00
10662;DHT22;5379;51.034;7.006;2023-02-01T16:33:29;14.90;94.90
10662;DHT22;5379;51.034;7.006;2023-02-01T16:35:57;14.60;98.70
10662;DHT22;5379;51.034;7.006;2023-02-01T16:38:27;15.30;95.80
10662;DHT22;5379;51.034;7.006;2023-02-01T16:40:54;14.60;96.30
10662;DHT22;5379;51.034;7.006;2023-02-01T16:43:24;14.60;96.80
10662;DHT22;5379;51.034;7.006;2023-02-01T16:45:53;15.10;96.30
10662;DHT22;5379;51.034;7.006;2023-02-01T16:48:22;15.30;97.70
10662;DHT22;5379;51.034;7.006;2023-02-01T16:50:53;15.50;94.70
10662;DHT22;5379;51.034;7.006;2023-02-01T16:53:23;15.50;95.10
10662;DHT22;5379;51.034;7.006;2023-02-01T16:55:50;16.10;94.90
10662;DHT22;5379;51.034;7.006;2023-02-01T16:58:18;16.00;95.40
10662;DHT22;5379;51.034;7.006;2023-02-01T17:00:45;15.50;95.50
10662;DHT22;5379;51.034;7.006;2023-02-01T17:03:13;15.60;96.20
10662;DHT22;5379;51.034;7.006;2023-02-01T17:05:43;15.60;94.90
10662;DHT22;5379;51.034;7.006;2023-02-01T17:08:14;14.80;97.20
10662;DHT22;5379;51.034;7.006;2023-02-01T17:10:46;15.60;96.40
10662;DHT22;5379;51.034;7.006;2023-02-01T17:13:14;14.90;95.70
10662;DHT22;5379;51.034;7.006;2023-02-01T17:15:45;15.50;99.10
10662;DHT22;5379;51.034;7.006;2023-02-01T17:18:15;15.60;96.40
10662;DHT22;5379;51.034;7.006;2023-02-01T17:20:43;15.80;98.80
10662;DHT22;5379;51.034;7.006;2023-02-01T17:23:13;16.00;94.90
10662;DHT22;5379;51.034;7.006;2023-02-01T17:25:40;15.80;97.00
10662;DHT22;5379;51.034;7.006;2023-02-01T17:28:09;15.80;95.20
10662;DHT22;5379;51.034;7.006;2023-02-01T17:30:37;15.20;95.80
10662;DHT22;5379;51.034;7.006;2023-02-01T17:33:20;14.90;99.90
10662;DHT22;5379;51.034;7.006;2023-02-01T17:35:48;15.00;99.30
10662;DHT22;5379;51.034;7.006;2023-02-01T17:38:15;14.70;96.80
10662;DHT22;5379;51.034;7.006;2023-02-01T17:40:43;14.40;97.50
10662;DHT22;5379;51.034;7.006;2023-02-01T17:43:13;15.30;99.90
10662;DHT22;5379;51.034;7.006;2023-02-01T17:45:44;16.40;97.50
10662;DHT22;5379;51.034;7.006;2023-02-01T17:48:16;17.00;98.60
10662;DHT22;5379;51.034;7.006;2023-02-01T17:50:45;17.30;95.40
10662;DHT22;5379;51.034;7.006;2023-02-01T17:53:13;17.60;97.90
10662;DHT22;5379;51.034;7.006;2023-02-01T17:55:43;17.20;97.20
10662;DHT22;5379;51.034;7.006;2023-02-01T17:58:13;16.70;97.80
10662;DHT22;5379;51.034;7.006;2023-02-01T18:00:41;16.70;98.80
10662;DHT22;5379;51.034;7.006;2023-02-01T18:03:18;16.60;95.10
10662;DHT22;5379;51.034;7.006;2023-02-01T18:05:46;16.00;97.60
10662;DHT22;5379;51.034;7.006;2023-02-01T18:08:15;16.50;97.60
10662;DHT22;5379;51.034;7.006;2023-02-01T18:10:43;16.80;98.80
10662;DHT22;5379;51.034;7.006;2023-02-01T18:13:11;16.50;93.80
10662;DHT22;5379;51.034;7.006;2023-02-01T18:15:39;15.10;96.80
10662;DHT22;5379;51.034;7.006;2023-02-01T18:18:06;14.10;99.40
10662;DHT22;5379;51.034;7.006;2023-02-01T18:20:33;13.80;98.80
10662;DHT22;5379;51.034;7.006;2023-02-01T18:23:01;14.70;99.90
10662;DHT22;5379;51.034;7.006;2023-02-01T18:25:29;14.40;97.20
10662;DHT22;5379;51.034;7.006;2023-02-01T18:28:01;15.00;99.90
10662;DHT22;5379;51.034;7.006;2023-02-01T18:30:30;14.90;96.20
10662;DHT22;5379;51.034;7.006;2023-02-01T18:33:00;14.80;97.30
10662;DHT22;5379;51.034;7.006;2023-02-01T18:35:29;14.10;97.90
10662;DHT22;5379;51.034;7.006;2023-02-01T18:37:57;14.30;99.80
10662;DHT22;5379;51.034;7.006;2023-02-01T18:40:26;14.90;98.90
10662;DHT22;5379;51.034;7.006;2023-02-01T18:42:54;14.60;96.70
10662;DHT22;5379;51.034;7.006;2023-02-01T18:45:25;14.40;97.90
10662;DHT22;5379;51.034;7.006;2023-02-01T18:47:54;14.40;98.20
10662;DHT22;5379;51.034;7.006;2023-02-01T18:50:23;14.60;97.90
10662;DHT22;5379;51.034;7.006;2023-02-01T18:52:53;14.10;98.30
10662;DHT22;5379;51.034;7.006;2023-02-01T18:55:21;14.00;99.90
10662;DHT22;5379;51.034;7.006;2023-02-01T18:57:48;13.70;99.90
10662;DHT22;5379;51.034;7.006;2023-02-01T19:00:17;14.70;99.90
10662;DHT22;5379;51.034;7.006;2023-02-01T19:02:44;15.20;96.90
10662;DHT22;5379;51.034;7.006;2023-02-01T19:05:12;14.90;99.70
10662;DHT22;5379;51.034;7.006;2023-02-01T19:07:41;15.40;99.90
10662;DHT22;5379;51.034;7.006;2023-02-01T19:10:12;14.70;96.60
10662;DHT22;5379;51.034;7.006;2023-02-01T19:12:39;14.50;99.20
10662;DHT22;5379;51.034;7.006;2023-02-01T19:15:09;14.50;98.50
10662;DHT22;5379;51.034;7.006;2023-02-01T19:17:40;14.20;99.90
10662;DHT22;5379;51.034;7.006;2023-02-01T19:20:08;14.40;99.90
10662;DHT22;5379;51.034;7.006;2023-02-01T19:22:36;14.50;99.90
10662;DHT22;5379;51.034;7.006;2023-02-01T19:25:04;14.80;96.70
10662;DHT22;5379;51.034;7.006;2023-02-01T19:27:31;14.80;97.00
10662;DHT22;5379;51.034;7.006;2023-02-01T19:29:58;13.90;98.10
10662;DHT22;5379;51.034;7.006;2023-02-01T19:32:26;14.00;99.10
10662;DHT22;5379;51.034;7.006;2023-02-01T19:34:52;14.20;97.50
10662;DHT22;5379;51.034;7.006;2023-02-01T19:37:19;13.60;98.70
10662;DHT22;5379;51.034;7.006;2023-02-01T19:39:46;13.40;98.90
10662;DHT22;5379;51.034;7.006;2023-02-01T19:42:15;13.90;99.90
10662;DHT22;5379;51.034;7.006;2023-02-01T19:44:42;14.50;97.90
10662;DHT22;5379;51.034;7.006;2023-02-01T19:47:09;14.80;97.20
10662;DHT22;5379;51.034;7.006;2023-02-01T19:49:36;14.20;97.20
10662;DHT22;5379;51.034;7.006;2023-02-01T19:52:03;14.20;98.50
10662;DHT22;5379;51.034;7.006;2023-02-01T19:54:30;15.00;99.90
10662;DHT22;5379;51.034;7.006;2023-02-01T19:56:57;15.60;95.80
10662;DHT22;5379;51.034;7.006;2023-02-01T19:59:26;15.80;99.50
10662;DHT22;5379;51.034;7.006;2023-02-01T20:01:53;16.50;99.70
10662;DHT22;5379;51.034;7.006;2023-02-01T20:04:21;16.10;95.60
10662;DHT22;5379;51.034;7.006;2023-02-01T20:06:48;16.80;98.00
10662;DHT22;5379;51.034;7.006;2023-02-01T20:09:20;16.20;99.70
10662;DHT22;5379;51.034;7.006;2023-02-01T20:11:48;16.60;98.50
10662;DHT22;5379;51.034;7.006;2023-02-01T20:14:15;16.70;96.90
10662;DHT22;5379;51.034;7.006;2023-02-01T20:16:44;16.50;99.20
10662;DHT22;5379;51.034;7.006;2023-02-01T20:19:11;16.90;97.60
10662;DHT22;5379;51.034;7.006;2023-02-01T20:21:39;17.10;95.60
10662;DHT22;5379;51.034;7.006;2023-02-01T20:24:08;15.60;94.70
10662;DHT22;5379;51.034;7.006;2023-02-01T20:26:36;15.50;96.30
10662;DHT22;5379;51.034;7.006;2023-02-01T20:29:03;15.20;98.20
10662;DHT22;5379;51.034;7.006;2023-02-01T20:31:30;15.40;97.70
10662;DHT22;5379;51.034;7.006;2023-02-01T20:33:59;15.60;97.90
10662;DHT22;5379;51.034;7.006;2023-02-01T20:36:27;15.90;95.80
10662;DHT22;5379;51.034;7.006;2023-02-01T20:38:56;16.20;97.50
10662;DHT22;5379;51.034;7.006;2023-02-01T20:41:23;15.90;98.90
10662;DHT22;5379;51.034;7.006;2023-02-01T20:43:50;15.40;95.80
10662;DHT22;5379;51.034;7.006;2023-02-01T20:46:18;14.70;97.80
10662;DHT22;5379;51.034;7.006;2023-02-01T20:48:48;15.10;99.90
10662;DHT22;5379;51.034;7.006;2023-02-01T20:51:18;15.10;97.10
10662;DHT22;5379;51.034;7.006;2023-02-01T20:53:46;15.00;96.30
10662;DHT22;5379;51.034;7.006;2023-02-01T20:56:14;14.30;98.20
10662;DHT22;5379;51.034;7.006;2023-02-01T20:58:42;14.90;98.70
10662;DHT22;5379;51.034;7.006;2023-02-01T21:01:09;15.50;99.70
10662;DHT22;5379;51.034;7.006;2023-02-01T21:03:36;16.00;98.10
10662;DHT22;5379;51.034;7.006;2023-02-01T21:06:04;15.80;95.70
10662;DHT22;5379;51.034;7.006;2023-02-01T21:08:33;15.50;98.90